Time;durP1;ratioP1;P1;durP2;ratioP2;P2;SDS_P1;SDS_P2;PMS_P1;PMS_P2;Temp;Humidity;BMP_temperature;BMP_pressure;BME280_temperature;BME280_humidity;BME280_pressure;Samples;Min_cycle;Max_cycle;Signal;HPM_P1;HPM_P2
2023/07/01 00:01:31;;;;;;;99.30;2.60;;;22.20;44.90;;;;;;4992034;28;20190;-72
2023/07/01 00:03:57;;;;;;;99.37;2.67;;;22.10;43.60;;;;;;4992133;28;20177;-74
2023/07/01 00:06:22;;;;;;;99.33;2.70;;;22.20;44.20;;;;;;4991517;28;20267;-73
2023/07/01 00:08:48;;;;;;;99.37;2.60;;;22.00;42.70;;;;;;4992007;28;20652;-73
2023/07/01 00:11:14;;;;;;;99.37;2.63;;;21.70;46.30;;;;;;4990451;28;20224;-72
2023/07/01 00:13:40;;;;;;;99.40;2.50;;;21.80;46.00;;;;;;4992037;28;20500;-73
2023/07/01 00:16:05;;;;;;;99.30;2.60;;;22.00;43.50;;;;;;4991652;28;20178;-74
2023/07/01 00:18:31;;;;;;;99.30;2.53;;;22.00;45.70;;;;;;4991886;28;20774;-72
2023/07/01 00:20:56;;;;;;;99.40;2.63;;;22.00;42.40;;;;;;4992092;28;20194;-72
2023/07/01 00:23:22;;;;;;;100.73;3.17;;;21.70;45.20;;;;;;4995483;28;20177;-72
2023/07/01 00:25:48;;;;;;;99.40;2.50;;;21.70;43.60;;;;;;4995100;28;20228;-73
2023/07/01 00:28:14;;;;;;;99.20;2.40;;;22.00;43.50;;;;;;4995461;28;20182;-74
2023/07/01 00:30:39;;;;;;;99.30;2.70;;;21.90;44.80;;;;;;4995449;28;20183;-73
2023/07/01 00:33:05;;;;;;;99.80;2.97;;;22.10;43.10;;;;;;4995450;28;20285;-72
2023/07/01 00:35:32;;;;;;;99.57;2.83;;;22.00;44.00;;;;;;4994963;28;20666;-72
2023/07/01 00:37:58;;;;;;;99.53;2.80;;;22.20;44.00;;;;;;4995346;28;20418;-73
2023/07/01 00:40:23;;;;;;;99.87;2.70;;;22.20;43.00;;;;;;4995299;28;20414;-72
2023/07/01 00:42:49;;;;;;;99.43;2.53;;;22.10;42.40;;;;;;4994903;28;20951;-73
2023/07/01 00:45:15;;;;;;;99.47;2.63;;;22.00;43.50;;;;;;4994708;28;20182;-72
2023/07/01 00:47:41;;;;;;;100.60;2.80;;;22.00;44.60;;;;;;4995214;28;20548;-73
2023/07/01 00:50:11;;;;;;;99.60;2.67;;;22.20;41.30;;;;;;4995061;28;20171;-73
2023/07/01 00:52:38;;;;;;;99.27;2.40;;;22.40;41.50;;;;;;4994930;28;20477;-72
2023/07/01 00:55:05;;;;;;;99.07;2.43;;;21.80;43.40;;;;;;4994646;28;20411;-73
2023/07/01 00:57:33;;;;;;;99.63;2.80;;;22.10;42.10;;;;;;4994855;28;20410;-72
2023/07/01 00:59:58;;;;;;;99.70;2.70;;;21.90;41.80;;;;;;4994993;28;20410;-72
2023/07/01 01:02:30;;;;;;;99.50;2.77;;;21.50;46.00;;;;;;4994646;28;20791;-72
2023/07/01 01:05:10;;;;;;;99.67;2.70;;;21.70;45.10;;;;;;4994539;28;20210;-72
2023/07/01 01:07:53;;;;;;;99.23;2.50;;;21.50;43.00;;;;;;4994982;28;20442;-72
2023/07/01 01:10:22;;;;;;;99.87;2.90;;;21.40;43.10;;;;;;4994832;28;20809;-73
2023/07/01 01:12:53;;;;;;;100.10;2.73;;;21.60;43.10;;;;;;4994073;28;20454;-72
2023/07/01 01:15:18;;;;;;;99.13;2.43;;;21.90;41.70;;;;;;4994330;28;20454;-72
2023/07/01 01:17:45;;;;;;;99.43;2.47;;;22.00;43.50;;;;;;4994625;28;20410;-72
2023/07/01 01:20:13;;;;;;;99.17;2.40;;;22.00;43.50;;;;;;4993197;28;20174;-72
2023/07/01 01:22:46;;;;;;;99.23;2.73;;;21.90;44.20;;;;;;4994318;28;20458;-74
2023/07/01 01:25:23;;;;;;;99.50;2.70;;;21.90;44.30;;;;;;4994260;28;20414;-73
2023/07/01 01:27:53;;;;;;;99.37;2.80;;;21.80;44.60;;;;;;4993059;28;20940;-73
2023/07/01 01:30:21;;;;;;;99.50;2.70;;;21.70;45.50;;;;;;4994357;28;20414;-73
2023/07/01 01:32:47;;;;;;;99.80;3.10;;;21.70;45.10;;;;;;4994455;28;20464;-73
2023/07/01 01:35:12;;;;;;;99.40;2.67;;;21.80;44.70;;;;;;4994010;28;20422;-73
2023/07/01 01:37:49;;;;;;;100.07;2.90;;;21.70;45.60;;;;;;4994232;28;20209;-74
2023/07/01 01:40:22;;;;;;;99.60;2.70;;;21.60;45.30;;;;;;4994222;28;20181;-73
2023/07/01 01:42:49;;;;;;;99.47;2.70;;;21.70;45.80;;;;;;4994131;28;20469;-73
2023/07/01 01:45:18;;;;;;;99.57;2.60;;;21.70;45.50;;;;;;4993732;28;20413;-73
2023/07/01 01:47:46;;;;;;;99.40;2.50;;;21.70;45.80;;;;;;4993951;28;20913;-73
2023/07/01 01:50:12;;;;;;;99.27;2.40;;;21.80;45.90;;;;;;4994113;28;20464;-73
2023/07/01 01:52:41;;;;;;;99.60;2.73;;;21.80;44.10;;;;;;4993573;28;20471;-73
2023/07/01 01:55:10;;;;;;;99.57;2.50;;;22.00;43.20;;;;;;4993664;28;20416;-73
2023/07/01 01:57:36;;;;;;;99.67;2.70;;;22.00;42.80;;;;;;4993554;28;20498;-73
2023/07/01 02:00:08;;;;;;;99.70;2.80;;;21.90;44.40;;;;;;4993895;28;20820;-73
2023/07/01 02:02:36;;;;;;;99.50;2.60;;;21.80;45.50;;;;;;4993724;28;20972;-73
2023/07/01 02:05:02;;;;;;;100.37;3.30;;;21.70;45.80;;;;;;4993359;28;20415;-73
2023/07/01 02:07:28;;;;;;;99.73;2.70;;;21.90;45.60;;;;;;4993547;28;20517;-73
2023/07/01 02:09:53;;;;;;;99.77;2.80;;;21.80;45.20;;;;;;4993607;28;20179;-73
2023/07/01 02:12:19;;;;;;;99.43;2.47;;;19.00;42.30;;;;;;4993252;28;20205;-73
2023/07/01 02:14:44;;;;;;;99.20;2.30;;;21.80;45.70;;;;;;4993236;28;20225;-73
2023/07/01 02:17:10;;;;;;;99.77;2.80;;;21.90;45.10;;;;;;4993583;28;20642;-73
2023/07/01 02:19:35;;;;;;;99.60;2.60;;;21.90;45.60;;;;;;4993334;28;20503;-73
2023/07/01 02:22:01;;;;;;;99.57;2.70;;;21.90;45.50;;;;;;4993118;28;20226;-73
2023/07/01 02:24:27;;;;;;;99.37;2.43;;;21.70;44.20;;;;;;4994137;28;20175;-73
2023/07/01 02:26:52;;;;;;;99.53;2.60;;;21.70;46.10;;;;;;4994888;28;20224;-73
2023/07/01 02:29:18;;;;;;;99.43;2.53;;;21.80;45.00;;;;;;4995000;28;20178;-73
2023/07/01 02:31:43;;;;;;;99.20;2.27;;;21.20;43.40;;;;;;4994803;28;20208;-73
2023/07/01 02:34:09;;;;;;;101.20;3.50;;;21.80;45.60;;;;;;4994357;28;20177;-73
2023/07/01 02:36:34;;;;;;;99.47;2.50;;;21.80;45.80;;;;;;4993737;28;20175;-73
2023/07/01 02:39:00;;;;;;;99.37;2.60;;;22.10;43.10;;;;;;4994263;28;20170;-73
2023/07/01 02:41:26;;;;;;;99.27;2.40;;;21.90;41.70;;;;;;4991198;28;20201;-73
2023/07/01 02:43:51;;;;;;;99.70;2.77;;;22.00;42.70;;;;;;4992631;28;20201;-73
2023/07/01 02:46:17;;;;;;;99.60;2.60;;;22.10;43.60;;;;;;4993081;28;20637;-74
2023/07/01 02:48:42;;;;;;;99.70;2.70;;;22.00;43.50;;;;;;4992999;28;20681;-74
2023/07/01 02:51:08;;;;;;;99.50;2.63;;;22.00;43.60;;;;;;4992491;28;20697;-74
2023/07/01 02:53:33;;;;;;;99.37;2.40;;;22.00;43.50;;;;;;4992892;28;20181;-73
2023/07/01 02:55:59;;;;;;;99.47;2.60;;;21.90;43.40;;;;;;4992827;28;20709;-73
2023/07/01 02:58:25;;;;;;;99.60;2.67;;;21.90;43.40;;;;;;4993160;28;20202;-73
2023/07/01 03:00:51;;;;;;;99.47;2.70;;;21.80;43.30;;;;;;4992790;28;20411;-73
2023/07/01 03:03:17;;;;;;;100.03;2.90;;;21.80;43.40;;;;;;4992579;28;20222;-73
2023/07/01 03:05:44;;;;;;;99.60;2.70;;;21.80;44.20;;;;;;4992360;28;20170;-74
2023/07/01 03:08:09;;;;;;;99.70;2.47;;;22.00;43.80;;;;;;4992688;28;20476;-73
2023/07/01 03:10:35;;;;;;;99.37;2.50;;;22.30;41.80;;;;;;4992251;28;20413;-73
2023/07/01 03:13:02;;;;;;;99.37;2.47;;;21.90;44.10;;;;;;4992321;28;20203;-73
2023/07/01 03:15:27;;;;;;;99.60;2.77;;;22.10;41.50;;;;;;4992302;28;20167;-74
2023/07/01 03:17:53;;;;;;;99.53;2.70;;;22.00;41.60;;;;;;4992552;28;20500;-73
2023/07/01 03:20:25;;;;;;;99.37;2.50;;;22.10;43.60;;;;;;4992852;28;20222;-73
2023/07/01 03:22:56;;;;;;;99.93;3.03;;;22.00;44.20;;;;;;4992152;28;20297;-73
2023/07/01 03:25:22;;;;;;;99.37;2.53;;;22.00;43.50;;;;;;4992147;28;20422;-73
2023/07/01 03:27:48;;;;;;;99.37;2.53;;;22.00;43.50;;;;;;4992333;28;20409;-73
2023/07/01 03:30:16;;;;;;;100.20;3.00;;;22.10;43.60;;;;;;4992201;28;20421;-73
2023/07/01 03:32:43;;;;;;;99.40;2.60;;;22.10;44.40;;;;;;4990868;28;20517;-73
2023/07/01 03:35:09;;;;;;;99.40;2.77;;;22.00;45.00;;;;;;4992132;28;20414;-73
2023/07/01 03:37:36;;;;;;;101.20;2.67;;;21.90;45.00;;;;;;4992242;28;20414;-73
2023/07/01 03:40:03;;;;;;;99.47;2.70;;;21.90;45.60;;;;;;4991935;28;20417;-73
2023/07/01 03:42:28;;;;;;;99.83;2.90;;;21.60;45.40;;;;;;4989750;28;20430;-74
2023/07/01 03:44:54;;;;;;;99.57;2.57;;;21.80;45.40;;;;;;4991356;28;20425;-73
2023/07/01 03:47:20;;;;;;;99.70;2.77;;;21.60;46.10;;;;;;4990880;28;20673;-75
2023/07/01 03:49:45;;;;;;;99.27;2.30;;;21.50;46.10;;;;;;4992303;28;20171;-73
2023/07/01 03:52:11;;;;;;;99.63;2.63;;;21.60;46.00;;;;;;4991627;28;20209;-73
2023/07/01 03:54:36;;;;;;;100.07;3.10;;;21.50;46.70;;;;;;4991927;28;20251;-73
2023/07/01 03:57:02;;;;;;;103.47;3.10;;;21.70;46.40;;;;;;4994339;28;20650;-73
2023/07/01 03:59:27;;;;;;;99.93;2.80;;;21.70;46.10;;;;;;4995829;28;20573;-73
2023/07/01 04:01:53;;;;;;;99.80;2.50;;;21.60;46.90;;;;;;4995606;28;20207;-73
2023/07/01 04:04:19;;;;;;;100.27;2.90;;;21.80;46.60;;;;;;4995809;28;20174;-74
2023/07/01 04:06:44;;;;;;;99.67;2.60;;;21.80;46.00;;;;;;4995739;28;20196;-73
2023/07/01 04:09:12;;;;;;;99.77;2.60;;;21.80;45.60;;;;;;4995627;28;20629;-73
2023/07/01 04:11:39;;;;;;;99.87;2.77;;;21.80;45.70;;;;;;4995469;28;20215;-74
2023/07/01 04:14:05;;;;;;;99.87;2.73;;;21.90;46.20;;;;;;4994196;28;20493;-73
2023/07/01 04:16:30;;;;;;;99.37;2.57;;;21.80;46.80;;;;;;4995287;28;21010;-73
2023/07/01 04:18:56;;;;;;;99.57;2.70;;;22.10;44.70;;;;;;4995781;28;20175;-73
2023/07/01 04:21:22;;;;;;;99.77;2.80;;;22.00;44.40;;;;;;4995376;28;20637;-73
2023/07/01 04:23:48;;;;;;;100.03;2.70;;;22.00;45.20;;;;;;4995438;28;20406;-73
2023/07/01 04:26:14;;;;;;;99.07;2.43;;;22.00;45.70;;;;;;4995359;28;20465;-73
2023/07/01 04:28:39;;;;;;;99.57;2.73;;;21.90;45.60;;;;;;4995138;28;20174;-73
2023/07/01 04:31:05;;;;;;;99.47;2.70;;;21.90;45.10;;;;;;4994131;28;20233;-73
2023/07/01 04:33:31;;;;;;;100.10;2.67;;;21.80;46.00;;;;;;4995333;28;20533;-73
2023/07/01 04:35:57;;;;;;;99.40;2.60;;;21.80;46.40;;;;;;4995206;28;20252;-73
2023/07/01 04:38:22;;;;;;;99.40;2.57;;;21.90;45.00;;;;;;4995563;28;20178;-73
2023/07/01 04:40:48;;;;;;;99.63;2.90;;;22.00;44.80;;;;;;4994005;28;20227;-74
2023/07/01 04:43:13;;;;;;;105.03;3.17;;;22.00;45.00;;;;;;4995086;28;20178;-74
2023/07/01 04:45:43;;;;;;;100.07;3.07;;;22.00;44.30;;;;;;4995011;28;20202;-73
2023/07/01 04:48:10;;;;;;;99.47;2.57;;;22.00;44.90;;;;;;4995315;28;20182;-73
2023/07/01 04:50:35;;;;;;;99.47;2.60;;;21.90;44.10;;;;;;4995124;28;20902;-74
2023/07/01 04:53:01;;;;;;;99.50;2.77;;;21.90;44.30;;;;;;4994740;28;20465;-74
2023/07/01 04:55:27;;;;;;;101.20;3.60;;;21.80;44.50;;;;;;4995022;28;20178;-73
2023/07/01 04:57:52;;;;;;;99.90;3.00;;;21.60;44.00;;;;;;4995336;28;20178;-73
2023/07/01 05:00:18;;;;;;;99.43;2.60;;;21.70;45.20;;;;;;4994647;28;20262;-72
2023/07/01 05:02:44;;;;;;;99.17;2.50;;;22.00;44.10;;;;;;4994853;28;20272;-73
2023/07/01 05:05:10;;;;;;;99.50;2.83;;;22.10;44.10;;;;;;4993259;28;20927;-73
2023/07/01 05:07:35;;;;;;;100.20;2.90;;;21.90;44.10;;;;;;4994579;28;20191;-73
2023/07/01 05:10:02;;;;;;;99.30;2.53;;;21.70;43.30;;;;;;4995232;28;20182;-72
2023/07/01 05:12:27;;;;;;;99.00;2.50;;;21.40;44.50;;;;;;4994508;28;20207;-73
2023/07/01 05:14:54;;;;;;;99.70;2.67;;;20.90;46.90;;;;;;4994184;28;20415;-72
2023/07/01 05:17:20;;;;;;;99.40;2.90;;;20.60;48.10;;;;;;4994367;28;20201;-73
2023/07/01 05:19:46;;;;;;;99.33;2.70;;;20.80;47.00;;;;;;4993166;28;20441;-73
2023/07/01 05:22:12;;;;;;;99.17;2.50;;;21.00;47.30;;;;;;4994414;28;20453;-73
2023/07/01 05:24:37;;;;;;;99.17;2.50;;;20.70;47.00;;;;;;4994054;28;20487;-73
2023/07/01 05:27:03;;;;;;;99.67;2.73;;;20.90;48.30;;;;;;4994483;28;20174;-73
2023/07/01 05:29:29;;;;;;;99.27;2.70;;;20.40;48.90;;;;;;4993875;28;20655;-73
2023/07/01 05:31:55;;;;;;;99.60;2.97;;;20.30;49.50;;;;;;4994299;28;20206;-73
2023/07/01 05:34:22;;;;;;;99.27;2.70;;;20.10;51.30;;;;;;4994280;28;20229;-73
2023/07/01 05:36:48;;;;;;;98.60;2.33;;;20.30;50.10;;;;;;4993986;28;20438;-73
2023/07/01 05:39:13;;;;;;;99.27;2.80;;;20.40;50.10;;;;;;4993293;28;20456;-74
2023/07/01 05:41:40;;;;;;;99.10;2.70;;;21.40;45.50;;;;;;4992820;28;20204;-73
2023/07/01 05:44:06;;;;;;;99.80;2.70;;;21.80;44.10;;;;;;4993494;28;20183;-73
2023/07/01 05:46:31;;;;;;;99.00;2.57;;;21.30;43.90;;;;;;4993824;28;20468;-73
2023/07/01 05:48:57;;;;;;;99.60;2.73;;;21.00;44.30;;;;;;4994054;28;20182;-73
2023/07/01 05:51:22;;;;;;;98.80;2.57;;;20.90;45.20;;;;;;4993068;28;20209;-73
2023/07/01 05:53:48;;;;;;;98.97;2.67;;;21.30;44.10;;;;;;4993653;28;20663;-73
2023/07/01 05:56:15;;;;;;;98.90;2.60;;;20.60;45.20;;;;;;4993663;28;20174;-73
2023/07/01 05:58:41;;;;;;;102.23;3.17;;;20.40;45.50;;;;;;4993590;28;20649;-73
2023/07/01 06:01:07;;;;;;;98.67;2.60;;;21.00;43.30;;;;;;4993447;28;20434;-73
2023/07/01 06:03:32;;;;;;;99.20;2.97;;;21.10;42.70;;;;;;4993903;28;20171;-73
2023/07/01 06:05:58;;;;;;;98.67;2.60;;;21.80;40.10;;;;;;4993289;28;20973;-73
2023/07/01 06:08:24;;;;;;;98.30;2.30;;;21.40;41.10;;;;;;4993724;28;20175;-72
2023/07/01 06:10:49;;;;;;;98.37;2.37;;;21.30;41.50;;;;;;4993390;28;20208;-73
2023/07/01 06:13:15;;;;;;;98.13;2.20;;;20.50;43.80;;;;;;4993490;28;20210;-73
2023/07/01 06:15:49;;;;;;;98.60;2.73;;;20.50;44.90;;;;;;4993375;28;20172;-73
2023/07/01 06:18:15;;;;;;;98.37;2.50;;;21.30;43.30;;;;;;4992197;28;20270;-74
2023/07/01 06:20:40;;;;;;;98.40;2.47;;;22.10;40.20;;;;;;4992564;28;20498;-74
2023/07/01 06:23:06;;;;;;;98.87;2.93;;;21.80;39.40;;;;;;4993163;28;20193;-74
2023/07/01 06:25:32;;;;;;;98.27;2.60;;;21.50;38.60;;;;;;4993076;28;20245;-75
2023/07/01 06:27:57;;;;;;;98.07;2.70;;;21.20;39.40;;;;;;4993330;28;20619;-74
2023/07/01 06:30:23;;;;;;;98.00;2.60;;;21.10;39.30;;;;;;4993028;28;20186;-74
2023/07/01 06:32:48;;;;;;;97.60;2.20;;;20.90;39.50;;;;;;4993209;28;20198;-74
2023/07/01 06:35:14;;;;;;;98.47;2.80;;;21.20;38.60;;;;;;4992908;28;20170;-74
2023/07/01 06:37:39;;;;;;;97.63;2.27;;;21.80;37.30;;;;;;4993258;28;20640;-74
2023/07/01 06:40:06;;;;;;;97.70;2.53;;;22.20;36.20;;;;;;4993033;28;20530;-73
2023/07/01 06:42:31;;;;;;;98.27;2.60;;;22.50;34.40;;;;;;4992698;28;20196;-73
2023/07/01 06:44:57;;;;;;;97.57;2.40;;;22.00;35.10;;;;;;4992521;28;21048;-74
2023/07/01 06:47:22;;;;;;;97.77;2.67;;;21.30;36.80;;;;;;4992985;28;20559;-73
2023/07/01 06:49:48;;;;;;;98.60;2.90;;;20.70;39.40;;;;;;4992937;28;20572;-73
2023/07/01 06:52:13;;;;;;;97.80;2.73;;;19.80;39.20;;;;;;4992561;28;20201;-73
2023/07/01 06:54:39;;;;;;;97.67;2.60;;;20.70;39.30;;;;;;4992378;28;20174;-74
2023/07/01 06:57:05;;;;;;;97.57;2.60;;;20.90;35.50;;;;;;4992845;28;20183;-74
2023/07/01 06:59:30;;;;;;;98.50;3.00;;;20.90;36.00;;;;;;4993013;28;20205;-74
2023/07/01 07:01:56;;;;;;;97.60;2.50;;;21.50;34.80;;;;;;4992654;28;20452;-74
2023/07/01 07:04:22;;;;;;;97.17;2.70;;;21.80;33.90;;;;;;4991146;28;20438;-73
2023/07/01 07:06:47;;;;;;;96.97;2.50;;;21.70;34.60;;;;;;4992830;28;20241;-74
2023/07/01 07:09:14;;;;;;;96.00;2.43;;;21.70;35.00;;;;;;4992677;28;20224;-73
2023/07/01 07:11:40;;;;;;;96.60;2.20;;;22.20;33.00;;;;;;4992034;28;20206;-73
2023/07/01 07:14:05;;;;;;;96.87;2.50;;;21.70;33.40;;;;;;4992298;28;20424;-72
2023/07/01 07:16:33;;;;;;;96.90;2.60;;;21.70;32.50;;;;;;4992212;28;20428;-73
2023/07/01 07:18:59;;;;;;;96.80;2.60;;;21.40;34.20;;;;;;4992606;28;20177;-73
2023/07/01 07:21:24;;;;;;;96.27;2.50;;;21.70;33.40;;;;;;4991952;28;20455;-73
2023/07/01 07:23:50;;;;;;;96.70;2.63;;;21.60;33.50;;;;;;4992424;28;20186;-73
2023/07/01 07:26:15;;;;;;;96.57;2.40;;;22.00;33.10;;;;;;4991942;28;20514;-73
2023/07/01 07:28:41;;;;;;;96.47;2.50;;;22.00;33.20;;;;;;4992470;28;20205;-73
2023/07/01 07:31:06;;;;;;;96.10;2.70;;;22.30;31.40;;;;;;4992139;28;20657;-74
2023/07/01 07:33:32;;;;;;;96.17;2.40;;;21.60;34.20;;;;;;4992027;28;20289;-73
2023/07/01 07:35:58;;;;;;;96.57;2.90;;;22.30;31.40;;;;;;4991894;28;20181;-73
2023/07/01 07:38:24;;;;;;;96.10;2.40;;;23.00;31.10;;;;;;4992354;28;20180;-73
2023/07/01 07:40:49;;;;;;;96.07;2.40;;;22.80;30.30;;;;;;4991738;28;21151;-74
2023/07/01 07:43:15;;;;;;;96.07;2.40;;;22.50;30.10;;;;;;4992357;28;20189;-73
2023/07/01 07:45:40;;;;;;;96.30;2.63;;;22.50;31.80;;;;;;4991850;28;20535;-73
2023/07/01 07:48:06;;;;;;;96.90;3.00;;;22.90;29.40;;;;;;5020174;23;20653;-80
2023/07/01 07:50:33;;;;;;;96.47;2.70;;;22.90;30.30;;;;;;4981926;28;20237;-80
2023/07/01 07:52:59;;;;;;;96.23;2.70;;;22.60;30.70;;;;;;4973440;28;20459;-78
2023/07/01 07:55:27;;;;;;;96.37;2.73;;;23.00;29.60;;;;;;4972367;28;20413;-78
2023/07/01 07:57:53;;;;;;;95.97;2.60;;;22.80;30.70;;;;;;4972970;28;20175;-79
2023/07/01 08:00:18;;;;;;;96.23;2.67;;;22.30;29.90;;;;;;4972731;28;20408;-79
2023/07/01 08:02:47;;;;;;;95.80;2.47;;;22.50;30.70;;;;;;4972974;28;20180;-78
2023/07/01 08:05:16;;;;;;;99.17;3.00;;;23.10;29.00;;;;;;4972836;28;20193;-80
2023/07/01 08:07:42;;;;;;;95.73;2.40;;;23.10;28.40;;;;;;4972024;28;20408;-78
2023/07/01 08:10:08;;;;;;;95.77;2.40;;;22.60;29.00;;;;;;4972775;28;20779;-78
2023/07/01 08:12:33;;;;;;;96.23;2.70;;;22.70;28.90;;;;;;4972574;28;20664;-78
2023/07/01 08:14:59;;;;;;;96.40;2.73;;;22.60;29.80;;;;;;4972514;28;20260;-80
2023/07/01 08:17:25;;;;;;;95.53;2.40;;;22.70;28.80;;;;;;4973306;28;20182;-80
2023/07/01 08:19:50;;;;;;;95.27;2.43;;;22.60;29.50;;;;;;4972287;28;20190;-79
2023/07/01 08:22:18;;;;;;;96.07;2.70;;;23.20;28.30;;;;;;4973234;28;20176;-78
2023/07/01 08:24:43;;;;;;;95.33;2.60;;;22.80;29.30;;;;;;4971235;28;20189;-78
2023/07/01 08:27:09;;;;;;;95.57;2.53;;;22.50;29.10;;;;;;4971882;28;20418;-79
2023/07/01 08:29:35;;;;;;;95.47;2.60;;;22.90;28.90;;;;;;4972626;28;20201;-78
2023/07/01 08:32:00;;;;;;;95.37;2.60;;;22.90;28.00;;;;;;4971862;28;20230;-79
2023/07/01 08:34:26;;;;;;;95.60;2.60;;;22.80;28.30;;;;;;4972578;28;20193;-79
2023/07/01 08:36:51;;;;;;;94.90;2.37;;;22.70;28.80;;;;;;4987149;28;20623;-79
2023/07/01 08:39:17;;;;;;;94.83;2.50;;;22.40;28.40;;;;;;4972625;28;20201;-78
2023/07/01 08:41:48;;;;;;;94.77;2.30;;;22.50;29.00;;;;;;4972561;28;20175;-79
2023/07/01 08:44:14;;;;;;;94.60;2.50;;;22.80;28.80;;;;;;4975268;28;20185;-79
2023/07/01 08:46:41;;;;;;;96.17;2.50;;;22.80;29.10;;;;;;4975582;28;20406;-78
2023/07/01 08:49:07;;;;;;;94.90;2.70;;;22.80;29.90;;;;;;4974552;28;20449;-78
2023/07/01 08:51:40;;;;;;;94.37;2.30;;;22.60;28.80;;;;;;4975295;28;20417;-78
2023/07/01 08:54:07;;;;;;;94.63;2.70;;;22.90;29.50;;;;;;4975262;28;20401;-78
2023/07/01 08:56:33;;;;;;;94.10;2.27;;;23.90;28.40;;;;;;4975102;28;20418;-78
2023/07/01 08:58:59;;;;;;;94.50;2.50;;;23.40;27.40;;;;;;4975275;28;20439;-78
2023/07/01 09:01:24;;;;;;;94.27;2.60;;;23.60;28.50;;;;;;4974700;28;20261;-78
2023/07/01 09:03:51;;;;;;;93.90;2.37;;;23.40;28.40;;;;;;4974901;28;20520;-79
2023/07/01 09:06:16;;;;;;;93.80;2.53;;;23.10;28.40;;;;;;4975075;28;20704;-78
2023/07/01 09:08:42;;;;;;;94.43;2.73;;;22.90;28.70;;;;;;4975261;28;20501;-79
2023/07/01 09:11:14;;;;;;;95.07;2.90;;;23.00;29.80;;;;;;4975426;28;20178;-78
2023/07/01 09:13:39;;;;;;;94.60;2.70;;;23.30;28.40;;;;;;4975094;28;20685;-78
2023/07/01 09:16:06;;;;;;;93.97;2.60;;;22.90;28.80;;;;;;4974687;28;20496;-78
2023/07/01 09:18:31;;;;;;;93.90;2.33;;;22.80;29.00;;;;;;4975063;28;20280;-78
2023/07/01 09:20:58;;;;;;;94.17;2.67;;;23.40;28.50;;;;;;4974651;28;20460;-79
2023/07/01 09:23:37;;;;;;;94.63;2.60;;;23.40;28.20;;;;;;4974926;28;20265;-78
2023/07/01 09:26:10;;;;;;;93.87;2.60;;;23.40;27.60;;;;;;4974667;28;20421;-78
2023/07/01 09:28:36;;;;;;;95.97;3.17;;;23.50;26.80;;;;;;4975028;28;20444;-79
2023/07/01 09:31:04;;;;;;;94.30;2.60;;;23.90;26.00;;;;;;4974839;28;20410;-78
2023/07/01 09:33:31;;;;;;;94.23;2.80;;;23.70;26.30;;;;;;4975822;28;20468;-78
2023/07/01 09:36:02;;;;;;;94.00;2.70;;;23.60;26.50;;;;;;4974488;28;20410;-78
2023/07/01 09:38:28;;;;;;;93.27;2.50;;;23.10;26.20;;;;;;4974669;28;20496;-78
2023/07/01 09:40:54;;;;;;;93.27;2.30;;;23.00;26.60;;;;;;4973462;28;20441;-78
2023/07/01 09:43:19;;;;;;;93.70;2.50;;;23.60;25.10;;;;;;4974648;28;20456;-78
2023/07/01 09:45:55;;;;;;;93.27;2.50;;;23.30;25.90;;;;;;4974146;28;20174;-78
2023/07/01 09:48:22;;;;;;;92.73;2.20;;;23.10;25.70;;;;;;4974591;28;20681;-78
2023/07/01 09:50:49;;;;;;;92.27;2.13;;;23.60;24.40;;;;;;4974612;28;20492;-78
2023/07/01 09:53:19;;;;;;;92.50;2.47;;;24.20;23.90;;;;;;4973883;28;20473;-79
2023/07/01 09:55:46;;;;;;;92.33;2.30;;;25.00;23.90;;;;;;4973767;28;20791;-80
2023/07/01 09:58:12;;;;;;;92.80;2.30;;;25.70;22.90;;;;;;4974244;28;20948;-79
2023/07/01 10:00:38;;;;;;;92.87;2.60;;;24.80;22.30;;;;;;4974262;28;20418;-79
2023/07/01 10:03:03;;;;;;;92.17;2.30;;;24.80;23.20;;;;;;4974926;28;20182;-79
2023/07/01 10:05:30;;;;;;;91.77;2.10;;;24.80;22.90;;;;;;4974240;28;20467;-80
2023/07/01 10:07:56;;;;;;;91.93;2.30;;;24.90;22.30;;;;;;4974424;28;20222;-79
2023/07/01 10:10:21;;;;;;;91.67;2.30;;;24.90;22.20;;;;;;4973956;28;20929;-79
2023/07/01 10:12:49;;;;;;;91.77;2.50;;;24.40;22.40;;;;;;4974100;28;20198;-79
2023/07/01 10:15:20;;;;;;;91.73;2.50;;;24.40;23.40;;;;;;4974036;28;20170;-79
2023/07/01 10:17:47;;;;;;;91.40;2.17;;;24.80;22.70;;;;;;4974085;28;20402;-79
2023/07/01 10:20:38;;;;;;;91.00;2.00;;;24.40;21.90;;;;;;4973869;28;20637;-78
2023/07/01 10:23:04;;;;;;;91.70;2.20;;;24.70;22.20;;;;;;4971852;28;20433;-79
2023/07/01 10:25:36;;;;;;;91.10;2.00;;;24.40;22.40;;;;;;4973481;28;20422;-80
2023/07/01 10:28:01;;;;;;;91.20;2.20;;;24.50;22.60;;;;;;4974005;28;20195;-79
2023/07/01 10:30:47;;;;;;;91.10;2.27;;;25.10;21.80;;;;;;4973969;28;20429;-78
2023/07/01 10:33:28;;;;;;;91.07;2.33;;;25.20;21.40;;;;;;4973460;28;20280;-79
2023/07/01 10:36:02;;;;;;;90.93;2.20;;;25.70;20.70;;;;;;4973448;28;20484;-79
2023/07/01 10:38:30;;;;;;;91.10;2.43;;;26.30;19.40;;;;;;4973924;28;21078;-79
2023/07/01 10:40:56;;;;;;;90.47;2.20;;;26.30;19.30;;;;;;4974113;28;20444;-79
2023/07/01 10:43:23;;;;;;;91.67;2.30;;;26.30;19.10;;;;;;4973735;28;20425;-80
2023/07/01 10:46:13;;;;;;;90.97;2.50;;;26.30;20.00;;;;;;4973484;28;20410;-80
2023/07/01 10:48:41;;;;;;;90.30;2.20;;;27.00;18.70;;;;;;4972557;28;20842;-79
2023/07/01 10:51:08;;;;;;;90.70;2.30;;;26.60;18.90;;;;;;4973552;28;20409;-79
2023/07/01 10:54:04;;;;;;;90.07;1.93;;;26.10;20.40;;;;;;4973509;28;20870;-79
2023/07/01 10:56:32;;;;;;;91.07;2.30;;;25.60;19.90;;;;;;4973197;28;20402;-79
2023/07/01 10:59:29;;;;;;;90.20;2.20;;;26.10;19.20;;;;;;4980099;28;20876;-79
2023/07/01 11:01:56;;;;;;;90.27;2.13;;;25.90;19.20;;;;;;4930604;29;20436;-79
2023/07/01 11:04:23;;;;;;;90.80;2.50;;;26.40;18.20;;;;;;4935653;29;20895;-81
2023/07/01 11:06:54;;;;;;;89.53;2.20;;;25.60;18.70;;;;;;4936489;29;20455;-78
2023/07/01 11:09:27;;;;;;;89.20;2.20;;;25.10;20.50;;;;;;4938798;29;20532;-79
2023/07/01 11:11:54;;;;;;;89.90;2.10;;;25.10;21.00;;;;;;4942221;29;20529;-81
2023/07/01 11:14:20;;;;;;;89.40;2.30;;;25.00;20.20;;;;;;4939013;29;20423;-80
2023/07/01 11:16:46;;;;;;;89.30;2.20;;;25.20;19.90;;;;;;4938086;29;20514;-80
2023/07/01 11:19:16;;;;;;;89.10;2.00;;;25.90;18.90;;;;;;4919886;29;20511;-79
2023/07/01 11:21:43;;;;;;;89.27;2.27;;;26.20;17.80;;;;;;4920049;29;20236;-79
2023/07/01 11:24:09;;;;;;;90.20;2.50;;;26.40;18.00;;;;;;4919548;29;20503;-79
2023/07/01 11:26:40;;;;;;;89.50;2.40;;;26.70;16.80;;;;;;4919240;29;20416;-79
2023/07/01 11:29:24;;;;;;;89.40;2.63;;;26.60;17.90;;;;;;4921024;29;20464;-81
2023/07/01 11:32:00;;;;;;;89.40;2.40;;;25.80;20.20;;;;;;4920352;29;20464;-80
2023/07/01 11:34:27;;;;;;;89.00;2.33;;;25.20;21.30;;;;;;4925104;29;20854;-80
2023/07/01 11:36:53;;;;;;;88.50;1.90;;;25.00;21.10;;;;;;4939336;29;20422;-81
2023/07/01 11:39:19;;;;;;;88.60;2.10;;;24.80;20.60;;;;;;4958918;29;20881;-80
2023/07/01 11:41:55;;;;;;;88.77;1.97;;;25.10;20.70;;;;;;4960740;28;20422;-79
2023/07/01 11:44:26;;;;;;;89.00;2.10;;;25.20;20.30;;;;;;4960863;28;20170;-81
2023/07/01 11:46:52;;;;;;;88.77;2.27;;;21.40;17.00;;;;;;4959220;28;20430;-79
2023/07/01 11:49:21;;;;;;;88.30;1.93;;;25.60;19.90;;;;;;4960085;28;20467;-79
2023/07/01 11:51:53;;;;;;;88.17;1.83;;;26.00;19.80;;;;;;4968271;28;20498;-79
2023/07/01 11:54:22;;;;;;;88.40;2.00;;;25.90;18.90;;;;;;4979731;28;20428;-80
2023/07/01 11:56:50;;;;;;;88.77;2.20;;;25.40;19.80;;;;;;4978461;28;20945;-80
2023/07/01 11:59:30;;;;;;;88.10;2.00;;;25.40;19.70;;;;;;4979631;28;20449;-80
2023/07/01 12:01:55;;;;;;;88.83;2.47;;;25.60;19.80;;;;;;4977392;28;20485;-81
2023/07/01 12:04:23;;;;;;;87.90;2.00;;;25.20;19.10;;;;;;4979152;28;20422;-80
2023/07/01 12:06:49;;;;;;;88.30;2.30;;;24.70;19.40;;;;;;4979793;28;20214;-79
2023/07/01 12:09:28;;;;;;;88.20;2.23;;;24.60;20.10;;;;;;4978143;28;20450;-80
2023/07/01 12:11:54;;;;;;;88.17;2.30;;;24.80;20.30;;;;;;4979591;28;20194;-81
2023/07/01 12:14:23;;;;;;;87.80;2.00;;;24.80;20.90;;;;;;4979435;28;20579;-79
2023/07/01 12:16:50;;;;;;;87.97;2.20;;;25.00;22.20;;;;;;4979508;28;20420;-80
2023/07/01 12:19:21;;;;;;;92.20;2.50;;;24.60;21.60;;;;;;4982678;28;20929;-80
2023/07/01 12:21:48;;;;;;;87.70;2.03;;;24.20;21.50;;;;;;4982914;28;20784;-81
2023/07/01 12:24:22;;;;;;;88.00;2.10;;;24.30;21.70;;;;;;4983020;28;20758;-80
2023/07/01 12:26:55;;;;;;;87.70;2.10;;;24.00;22.50;;;;;;4982120;28;20417;-80
2023/07/01 12:29:22;;;;;;;87.90;2.10;;;23.90;22.60;;;;;;4983375;28;20895;-81
2023/07/01 12:31:48;;;;;;;88.80;2.50;;;24.10;22.80;;;;;;4983249;28;20564;-80
2023/07/01 12:34:14;;;;;;;87.87;2.10;;;24.30;22.70;;;;;;4982076;28;20905;-80
2023/07/01 12:36:42;;;;;;;88.10;2.20;;;24.50;21.60;;;;;;4981530;28;20457;-80